createdAt,value
2022-08-17T00:02:01.456Z,73.83
2022-08-17T00:07:10.973Z,74.34
2022-08-17T00:12:43.259Z,74.76
2022-08-17T00:17:34.408Z,74.94
2022-08-17T00:22:46.653Z,74.69
2022-08-17T00:27:48.330Z,75.07
2022-08-17T00:33:14.482Z,75.12
2022-08-17T00:38:12.409Z,75.65
2022-08-17T00:43:20.678Z,75.60
2022-08-17T00:48:29.340Z,75.64
2022-08-17T00:53:36.463Z,75.62
2022-08-17T00:58:38.620Z,76.23
2022-08-17T01:03:41.902Z,75.60
2022-08-17T01:08:43.594Z,76.25
2022-08-17T01:13:45.646Z,76.00
2022-08-17T01:18:49.399Z,75.95
2022-08-17T01:23:51.023Z,76.28
2022-08-17T01:28:55.783Z,76.23
2022-08-17T01:34:05.959Z,76.57
2022-08-17T01:39:16.186Z,76.56
2022-08-17T01:44:18.033Z,76.59
2022-08-17T01:49:19.732Z,76.63
2022-08-17T01:54:22.258Z,76.75
2022-08-17T01:59:23.989Z,77.08
2022-08-17T02:04:25.573Z,77.24
2022-08-17T02:09:29.713Z,77.50
2022-08-17T02:14:31.744Z,78.07
2022-08-17T02:19:33.356Z,77.86
2022-08-17T02:25:00.095Z,78.24
2022-08-17T02:30:00.252Z,78.70
2022-08-17T02:35:01.885Z,78.43
2022-08-17T02:40:04.548Z,78.94
2022-08-17T02:45:11.201Z,79.39
2022-08-17T02:50:15.553Z,79.35
2022-08-17T02:55:19.258Z,79.58
2022-08-17T03:00:28.829Z,79.91
2022-08-17T03:05:32.732Z,80.13
2022-08-17T03:10:34.550Z,80.25
2022-08-17T03:15:36.293Z,80.01
2022-08-17T03:20:42.297Z,80.23
2022-08-17T03:25:46.044Z,80.33
2022-08-17T03:30:47.676Z,80.63
2022-08-17T03:35:49.392Z,81.12
2022-08-17T03:40:58.845Z,81.21
2022-08-17T03:46:34.138Z,81.46
2022-08-17T03:51:54.826Z,81.86
2022-08-17T03:57:10.871Z,81.92
2022-08-17T04:02:30.233Z,81.77
2022-08-17T04:07:32.087Z,81.78
2022-08-17T04:12:49.602Z,81.64
2022-08-17T04:17:52.376Z,81.69
2022-08-17T04:22:59.396Z,81.48
2022-08-17T04:28:01.995Z,81.34
2022-08-17T04:33:09.799Z,81.05
2022-08-17T04:38:14.934Z,80.78
2022-08-17T04:43:19.631Z,79.92
2022-08-17T04:48:21.351Z,79.89
2022-08-17T04:53:22.971Z,79.44
2022-08-17T04:58:25.029Z,78.88
2022-08-17T05:03:26.695Z,78.28
2022-08-17T05:08:28.295Z,77.03
2022-08-17T05:13:30.238Z,76.78
2022-08-17T05:18:32.894Z,75.45
2022-08-17T05:23:43.049Z,74.60
2022-08-17T05:28:45.456Z,74.83
2022-08-17T05:33:47.796Z,73.71
2022-08-17T05:38:50.644Z,73.17
2022-08-17T05:43:56.260Z,69.43
2022-08-17T05:49:03.459Z,71.12
2022-08-17T05:54:42.081Z,70.29
2022-08-17T06:00:20.968Z,69.14
2022-08-17T06:05:37.039Z,68.71
2022-08-17T06:10:59.622Z,67.56
2022-08-17T06:16:28.172Z,67.27
2022-08-17T06:21:39.601Z,65.99
2022-08-17T06:26:44.287Z,65.57
2022-08-17T06:31:46.218Z,65.09
2022-08-17T06:36:56.629Z,63.73
2022-08-17T06:42:10.246Z,63.78
2022-08-17T06:47:49.558Z,61.41
2022-08-17T06:52:59.882Z,60.87
2022-08-17T06:58:16.366Z,60.34
2022-08-17T07:03:24.525Z,59.22
2022-08-17T07:08:47.581Z,59.00
2022-08-17T07:14:25.003Z,58.56
2022-08-17T07:19:32.107Z,58.57
2022-08-17T07:25:02.592Z,57.52
2022-08-17T07:30:26.571Z,57.40
2022-08-17T07:35:40.791Z,56.07
2022-08-17T07:41:03.136Z,56.61
2022-08-17T07:46:31.142Z,55.64
2022-08-17T07:51:36.445Z,55.50
2022-08-17T07:56:49.167Z,54.39
2022-08-17T08:01:57.714Z,54.24
2022-08-17T08:07:01.859Z,53.32
2022-08-17T08:12:22.004Z,52.78
2022-08-17T08:17:30.694Z,52.24
2022-08-17T08:22:47.729Z,51.99
2022-08-17T08:28:27.971Z,51.75
2022-08-17T08:33:56.404Z,51.88
2022-08-17T08:39:13.056Z,51.79
2022-08-17T08:45:00.616Z,50.71
2022-08-17T08:50:03.955Z,50.55
2022-08-17T08:55:07.786Z,48.53
2022-08-17T09:00:16.753Z,47.82
2022-08-17T09:05:56.393Z,48.95
2022-08-17T09:12:01.382Z,48.29
2022-08-17T09:17:14.955Z,47.88
2022-08-17T09:22:33.181Z,46.36
2022-08-17T09:28:00.486Z,46.08
2022-08-17T09:33:08.061Z,46.80
2022-08-17T09:38:31.871Z,46.43
2022-08-17T09:43:55.175Z,46.35
2022-08-17T09:49:03.454Z,46.84
2022-08-17T09:54:37.638Z,45.60
2022-08-17T09:59:54.921Z,44.75
2022-08-17T10:05:38.075Z,45.33
2022-08-17T10:10:56.439Z,44.73
2022-08-17T10:16:11.564Z,43.67
2022-08-17T10:21:37.583Z,43.81
2022-08-17T10:26:56.178Z,43.59
2022-08-17T10:32:05.098Z,43.44
2022-08-17T10:37:26.332Z,43.61
2022-08-17T10:42:50.561Z,42.56
2022-08-17T10:47:55.721Z,43.20
2022-08-17T10:52:59.940Z,41.70
2022-08-17T10:58:21.934Z,42.52
2022-08-17T11:03:25.659Z,42.42
2022-08-17T11:08:39.374Z,41.87
2022-08-17T11:13:51.738Z,41.34
2022-08-17T11:19:15.142Z,42.00
2022-08-17T11:24:21.224Z,41.59
2022-08-17T11:29:27.632Z,40.50
2022-08-17T11:34:32.634Z,39.19
2022-08-17T11:39:53.092Z,40.64
2022-08-17T11:45:09.992Z,40.27
2022-08-17T11:50:49.998Z,41.16
2022-08-17T11:55:51.705Z,40.54
2022-08-17T12:01:00.930Z,40.02
2022-08-17T12:06:30.727Z,39.38
2022-08-17T12:12:11.265Z,40.31
2022-08-17T12:17:14.161Z,39.38
2022-08-17T12:22:38.730Z,39.78
2022-08-17T12:28:05.136Z,39.83
2022-08-17T12:33:13.786Z,39.36
2022-08-17T12:38:34.762Z,39.98
2022-08-17T12:43:36.492Z,39.98
2022-08-17T12:48:38.112Z,40.50
2022-08-17T12:53:45.578Z,40.37
2022-08-17T12:58:56.893Z,40.60
2022-08-17T13:04:00.236Z,40.75
2022-08-17T13:09:13.797Z,40.56
2022-08-17T13:14:18.511Z,40.88
2022-08-17T13:19:40.433Z,42.10
2022-08-17T13:24:58.601Z,42.15
2022-08-17T13:30:02.305Z,41.36
2022-08-17T13:35:39.918Z,42.91
2022-08-17T13:40:44.217Z,41.12
2022-08-17T13:45:50.738Z,41.91
2022-08-17T13:50:56.886Z,41.94
2022-08-17T13:56:37.932Z,41.72
2022-08-17T14:01:52.574Z,42.14
2022-08-17T14:06:57.833Z,41.01
2022-08-17T14:12:00.280Z,39.44
2022-08-17T14:17:02.093Z,39.70
2022-08-17T14:22:08.854Z,40.54
2022-08-17T14:27:10.358Z,39.84
2022-08-17T14:32:19.320Z,41.14
2022-08-17T14:37:21.627Z,40.28
2022-08-17T14:42:25.269Z,41.03
2022-08-17T14:47:26.762Z,40.98
2022-08-17T14:52:28.864Z,40.04
2022-08-17T14:57:34.155Z,39.23
2022-08-17T15:02:55.625Z,40.21
2022-08-17T15:07:58.145Z,39.45
2022-08-17T15:13:00.431Z,40.12
2022-08-17T15:18:02.579Z,40.04
2022-08-17T15:23:04.419Z,40.80
2022-08-17T15:28:06.394Z,40.89
2022-08-17T15:33:07.882Z,41.29
2022-08-17T15:38:11.961Z,40.74
2022-08-17T15:43:32.639Z,41.44
2022-08-17T15:48:41.720Z,42.52
2022-08-17T15:53:46.228Z,41.69
2022-08-17T15:58:49.093Z,41.79
2022-08-17T16:04:04.347Z,42.27
2022-08-17T16:09:06.866Z,42.51
2022-08-17T16:14:08.323Z,43.85
2022-08-17T16:19:09.794Z,43.47
2022-08-17T16:24:12.867Z,42.50
2022-08-17T16:29:15.274Z,42.51
2022-08-17T16:34:18.898Z,42.70
2022-08-17T16:39:20.408Z,42.57
2022-08-17T16:44:22.022Z,41.94
2022-08-17T16:49:35.968Z,42.23
2022-08-17T16:54:43.299Z,42.15
2022-08-17T16:59:48.114Z,42.59
2022-08-17T17:04:56.039Z,42.23
2022-08-17T17:09:57.500Z,42.46
2022-08-17T17:15:02.213Z,43.28
2022-08-17T17:20:12.466Z,42.82
2022-08-17T17:25:23.865Z,43.49
2022-08-17T17:30:33.095Z,43.72
2022-08-17T17:36:01.858Z,44.47
2022-08-17T17:41:08.587Z,44.42
2022-08-17T17:46:29.156Z,44.64
2022-08-17T17:52:11.032Z,45.02
2022-08-17T17:58:05.834Z,45.47
2022-08-17T18:03:51.575Z,45.98
2022-08-17T18:08:58.953Z,45.57
2022-08-17T18:14:17.225Z,46.27
2022-08-17T18:19:24.972Z,47.50
2022-08-17T18:24:33.417Z,47.53
2022-08-17T18:29:44.245Z,48.95
2022-08-17T18:34:48.823Z,50.78
2022-08-17T18:39:50.503Z,52.19
2022-08-17T18:44:55.338Z,52.18
2022-08-17T18:50:18.632Z,53.36
2022-08-17T18:55:23.114Z,53.27
2022-08-17T19:00:30.594Z,53.77
2022-08-17T19:05:37.996Z,54.03
2022-08-17T19:10:46.776Z,54.71
2022-08-17T19:16:05.298Z,54.83
2022-08-17T19:21:22.824Z,54.67
2022-08-17T19:26:55.163Z,54.97
2022-08-17T19:31:55.126Z,55.66
2022-08-17T19:37:02.500Z,56.10
2022-08-17T19:42:12.820Z,56.90
2022-08-17T19:47:50.973Z,57.04
2022-08-17T19:53:09.736Z,57.65
2022-08-17T19:58:24.801Z,57.94
2022-08-17T20:03:29.873Z,58.26
2022-08-17T20:09:15.251Z,58.71
2022-08-17T20:14:53.535Z,58.65
2022-08-17T20:20:24.029Z,58.59
2022-08-17T20:25:31.552Z,59.63
2022-08-17T20:30:41.002Z,59.51
2022-08-17T20:35:59.847Z,60.48
2022-08-17T20:41:04.304Z,60.91
2022-08-17T20:46:28.472Z,60.56
2022-08-17T20:51:34.786Z,60.90
2022-08-17T20:56:57.872Z,61.09
2022-08-17T21:02:08.971Z,60.94
2022-08-17T21:07:42.550Z,60.72
2022-08-17T21:12:55.914Z,60.69
2022-08-17T21:18:16.496Z,60.39
2022-08-17T21:23:52.136Z,60.75
2022-08-17T21:29:32.046Z,60.56
2022-08-17T21:34:39.197Z,60.86
2022-08-17T21:39:41.716Z,61.05
2022-08-17T21:44:49.382Z,61.43
2022-08-17T21:49:52.681Z,61.79
2022-08-17T21:54:58.699Z,61.88
2022-08-17T22:00:02.762Z,62.33
2022-08-17T22:05:11.125Z,62.16
2022-08-17T22:10:27.818Z,62.05
2022-08-17T22:15:29.528Z,62.24
2022-08-17T22:20:31.380Z,62.53
2022-08-17T22:25:36.600Z,62.84
2022-08-17T22:30:42.917Z,63.10
2022-08-17T22:35:45.544Z,63.28
2022-08-17T22:40:53.930Z,63.62
2022-08-17T22:45:57.323Z,64.14
2022-08-17T22:51:13.839Z,64.54
2022-08-17T22:56:37.564Z,64.65
2022-08-17T23:01:40.695Z,65.01
2022-08-17T23:06:42.616Z,64.97
2022-08-17T23:11:48.934Z,65.47
2022-08-17T23:16:51.298Z,65.62
2022-08-17T23:21:55.368Z,65.48
2022-08-17T23:26:58.184Z,65.78
2022-08-17T23:32:01.406Z,66.00
2022-08-17T23:37:04.446Z,66.15
2022-08-17T23:42:09.333Z,66.83
2022-08-17T23:47:11.305Z,66.95
2022-08-17T23:52:15.307Z,67.61
2022-08-17T23:57:33.089Z,67.99
